Pelagia — PGRQ — position and weather

sailwx.info

Track history (hours):
 
Tides and Currents Weather Stations Pressure Air Temp Water Temp Dewpoint Dewpoint Depression Visibility Wind Speed Wind Dir Waves Ship Positions

Oceanographic research ship Pelagia (Netherlands)

Detailed information on ship capabilities available from University of Delaware's Ocean Information Center and ARCUS's ALIAS (Arctic Logistics Information and Support) project.

Last reported at 2017-Jun-25 00:00 UTC. Time now 2017-Jun-25 15:49 UTC.
Position N 53°54' E 003°06'.

Length 66 m; beam 13 m.

Type: Other ship. MMSI: 244925000.

Wind from 250 at 18 knots

Barometer 1008.8 mb
Air temperature 15.2 ° C
Visibility: greater than 10.8 NM
Water temperature 17.3 ° C

Date/timePositionNaut miles runAvg speedWind from/ knotsBaromVisibWave heightAir tempDewpointWater temp
2017-Jun-25 00:00N 53°54' E 003°06'39 2.4 250 / 181008.810.8 15.2 17.3
2017-Jun-24 07:15N 53°36' E 004°06'0 0.2
2017-Jun-24 06:48N 53°36' E 004°05'0 0.2
2017-Jun-24 06:30N 53°36' E 004°05'0 0.0
2017-Jun-24 06:00N 53°36' E 004°05'38 2.7
2017-Jun-23 16:09N 53°28' E 005°07'2 9.1
2017-Jun-23 15:57N 53°26' E 005°06'811.7
2017-Jun-23 15:16N 53°21' E 004°55'311.5
2017-Jun-23 15:00N 53°19' E 004°52'811.4
2017-Jun-23 14:21N 53°13' E 004°46'2 1.9
2017-Jun-23 13:22N 53°11' E 004°47'1 1.7
2017-Jun-23 12:55N 53°11' E 004°46'3 8.1
2017-Jun-23 12:30N 53°09' E 004°42'4 8.7
2017-Jun-23 12:00N 53°05' E 004°38'4 8.7
2017-Jun-23 11:31N 53°01' E 004°35'4 8.0
2017-Jun-23 11:01N 52°57' E 004°33'4 8.5
2017-Jun-23 10:31N 52°53' E 004°35'4 7.6
2017-Jun-23 10:01N 52°56' E 004°40'510.2
2017-Jun-23 09:31N 52°59' E 004°46'2 3.1
2017-Jun-23 08:58N 53°00' E 004°48'0 0.0
2017-Jun-23 08:28N 53°00' E 004°48'0 0.0
2017-Jun-23 07:58N 53°00' E 004°48'0 0.0
2017-Jun-23 07:28N 53°00' E 004°48'0 0.0
2017-Jun-23 06:58N 53°00' E 004°48'0 0.0
2017-Jun-23 06:28N 53°00' E 004°48'0 0.0
2017-Jun-23 05:55N 53°00' E 004°48'0 0.0
2017-Jun-23 05:28N 53°00' E 004°48'0 0.4
2017-Jun-23 05:01N 53°00' E 004°48'1 2.0
2017-Jun-23 04:30N 53°01' E 004°50'0 0.1
2017-Jun-23 04:00N 53°01' E 004°50'2 4.8
2017-Jun-23 03:30N 52°59' E 004°47'3 6.4
2017-Jun-23 03:00N 52°57' E 004°42'3 6.0
2017-Jun-23 02:30N 52°55' E 004°40'3 5.7
2017-Jun-23 02:00N 52°53' E 004°36'2 4.4
2017-Jun-23 01:30N 52°53' E 004°32'1 1.0
2017-Jun-23 01:00N 52°52' E 004°33'0 0.6
2017-Jun-23 00:30N 52°52' E 004°33'1 1.7
2017-Jun-23 00:01N 52°52' E 004°32'2117.0
2017-Jun-23 00:00N 52°54' E 004°30'1 2.1 270 / 181012.9 5.4 17.2 17.7
2017-Jun-22 23:30N 52°53' E 004°29'0 0.3
2017-Jun-22 23:00N 52°53' E 004°29'0 0.1
2017-Jun-22 22:30N 52°53' E 004°29'1 1.3
2017-Jun-22 22:00N 52°53' E 004°30'0 0.7
2017-Jun-22 21:30N 52°53' E 004°30'1 1.3
2017-Jun-22 21:00N 52°53' E 004°30'3 6.2
2017-Jun-22 20:31N 52°54' E 004°25'3 6.2
2017-Jun-22 20:01N 52°56' E 004°20'15 2.1
2017-Jun-22 12:46N 53°05' E 003°60'1 0.3
2017-Jun-22 10:34N 53°05' E 003°59'0 0.3
2017-Jun-22 10:30N 53°05' E 003°59'0 0.0
2017-Jun-22 10:00N 53°05' E 003°59'0 0.0
2017-Jun-22 09:29N 53°05' E 003°59'1 2.8
2017-Jun-22 08:58N 53°04' E 003°60'2 2.9
2017-Jun-22 08:20N 53°02' E 004°01'1 2.7
2017-Jun-22 07:59N 53°01' E 004°00'1 1.7
2017-Jun-22 07:30N 53°02' E 004°01'2 3.4
2017-Jun-22 07:00N 53°03' E 003°59'3 4.0
2017-Jun-22 06:22N 53°05' E 003°59'1 1.5
2017-Jun-22 06:00N 53°06' E 003°59'1 2.4
2017-Jun-22 05:27N 53°04' E 003°59'1 3.2
2017-Jun-22 05:00N 53°04' E 003°57'1 2.8
2017-Jun-22 04:29N 53°04' E 003°59'5 3.8
2017-Jun-22 03:15N 53°08' E 004°03'18 5.6
2017-Jun-22 00:00N 53°24' E 004°18'5 3.2 140 / 171013.410.8 19.5 15.2
2017-Jun-21 22:24N 53°27' E 004°24'1 1.8
2017-Jun-21 21:59N 53°27' E 004°26'1 1.9
2017-Jun-21 21:30N 53°27' E 004°27'1 1.8
2017-Jun-21 21:01N 53°28' E 004°29'1 1.4
2017-Jun-21 20:30N 53°28' E 004°30'1 3.0
2017-Jun-21 20:01N 53°26' E 004°30'2 3.1
2017-Jun-21 19:25N 53°25' E 004°29'1 3.2
2017-Jun-21 19:00N 53°24' E 004°28'2 3.5
2017-Jun-21 18:29N 53°22' E 004°26'1 2.9
2017-Jun-21 18:01N 53°24' E 004°25'2 0.5
2017-Jun-21 12:46N 53°22' E 004°22'0 0.7
2017-Jun-21 12:24N 53°21' E 004°22'1 2.4
2017-Jun-21 11:47N 53°22' E 004°21'1 3.8
2017-Jun-21 11:29N 53°24' E 004°20'5 3.7
2017-Jun-21 10:07N 53°28' E 004°16'0 3.4
2017-Jun-21 10:00N 53°28' E 004°16'1 2.4
2017-Jun-21 09:26N 53°29' E 004°14'5 6.0
2017-Jun-21 08:32N 53°35' E 004°16'3 9.0
2017-Jun-21 08:15N 53°37' E 004°17'4 2.5
2017-Jun-21 06:41N 53°38' E 004°23'0 0.0
2017-Jun-21 06:29N 53°38' E 004°23'0 0.0
2017-Jun-21 06:00N 53°38' E 004°23'2 1.6
2017-Jun-21 04:51N 53°39' E 004°26'1 0.6
2017-Jun-21 03:34N 53°39' E 004°25'0 1.5
2017-Jun-21 03:30N 53°39' E 004°25'1 1.3
2017-Jun-21 02:21N 53°38' E 004°22'0 1.1
2017-Jun-21 01:54N 53°38' E 004°21'0 1.0
2017-Jun-21 01:25N 53°38' E 004°21'3 5.9
2017-Jun-21 01:00N 53°36' E 004°18'2132.2 1021.3
2017-Jun-21 00:59N 53°37' E 004°20'5 5.9
2017-Jun-21 00:06N 53°33' E 004°15'327.4
2017-Jun-21 00:00N 53°36' E 004°12'417.3 080 / 131021.710.8 14.4 15.0
2017-Jun-20 23:45N 53°32' E 004°13'1 5.5
2017-Jun-20 23:29N 53°31' E 004°11'3 5.9
2017-Jun-20 23:00N 53°30' E 004°06'180.5 1021.7
2017-Jun-20 22:59N 53°29' E 004°07'3 5.2
2017-Jun-20 22:30N 53°27' E 004°06'3 5.5
2017-Jun-20 22:00N 53°24' E 004°05'0163.6
2017-Jun-20 22:00N 53°24' E 004°06'2 3.9 1021.5
2017-Jun-20 21:29N 53°22' E 004°06'2 4.1
2017-Jun-20 21:00N 53°24' E 004°06'318.4 1021.7
2017-Jun-20 20:51N 53°21' E 004°07'0 0.8
2017-Jun-20 20:30N 53°21' E 004°07'0 1.0
2017-Jun-20 20:00N 53°21' E 004°06'3243.8
2017-Jun-20 20:00N 53°24' E 004°06'2 3.5 1021.4
2017-Jun-20 19:30N 53°22' E 004°06'2 3.3
2017-Jun-20 19:00N 53°24' E 004°06'2 4.7 1021.2
2017-Jun-20 18:40N 53°26' E 004°06'1 3.9
2017-Jun-20 18:30N 53°26' E 004°05'2 3.9
2017-Jun-20 18:00N 53°28' E 004°05'2254.2
2017-Jun-20 18:00N 53°30' E 004°06'0 0.0 050 / 181021.310.8 14.8 15.2
2017-Jun-20 17:00N 53°30' E 004°06'4 9.3 1021.4
2017-Jun-20 16:36N 53°34' E 004°05'0 4.0
2017-Jun-20 16:30N 53°34' E 004°05'2 4.1
2017-Jun-20 16:00N 53°36' E 004°06'9 9.3 1021.7
2017-Jun-20 15:00N 53°42' E 004°18'4 3.6 1022.1
2017-Jun-20 14:00N 53°42' E 004°24'0 0.0
2017-Jun-20 13:00N 53°42' E 004°24'6 6.0 1021.6
2017-Jun-20 12:00N 53°48' E 004°24'0 0.0 1021.7
2017-Jun-20 11:00N 53°48' E 004°24'4 3.5 1021.9
2017-Jun-20 10:00N 53°48' E 004°30'3 5.5 1021.5
2017-Jun-20 09:23N 53°45' E 004°30'3 8.4
2017-Jun-20 09:00N 53°48' E 004°30'0 0.0 1021.1
2017-Jun-20 08:00N 53°48' E 004°30'417.3 1020.5
2017-Jun-20 07:47N 53°44' E 004°30'0 1.6
2017-Jun-20 07:29N 53°44' E 004°30'1 1.7
2017-Jun-20 07:00N 53°45' E 004°30'31149.4
2017-Jun-20 07:00N 53°48' E 004°30'2 3.0 1020.1
2017-Jun-20 06:24N 53°46' E 004°29'2 4.4
2017-Jun-20 06:00N 53°48' E 004°30'314.2 060 / 151019.5 5.4 15.6 16.2
2017-Jun-20 05:48N 53°45' E 004°30'2 6.1
2017-Jun-20 05:25N 53°43' E 004°28'2 3.7
2017-Jun-20 05:00N 53°42' E 004°30'1167.3 1019.0
2017-Jun-20 04:59N 53°43' E 004°28'1 1.5
2017-Jun-20 04:00N 53°42' E 004°30'3 3.8 1018.4
2017-Jun-20 03:14N 53°45' E 004°29'313.0
2017-Jun-20 03:00N 53°48' E 004°30'0 0.0 1018.3
2017-Jun-20 02:00N 53°48' E 004°30'0 0.0 1018.4
2017-Jun-20 01:00N 53°48' E 004°30'2 5.2 1018.3
2017-Jun-20 00:39N 53°46' E 004°29'2 2.8
2017-Jun-20 00:00N 53°48' E 004°30'7 7.1 360 / 51018.5 5.4 17.9 18.0
2017-Jun-19 23:03N 53°43' E 004°23'116.7
2017-Jun-19 23:00N 53°42' E 004°24'2 7.5 1018.5
2017-Jun-19 22:47N 53°42' E 004°21'2 5.4
2017-Jun-19 22:25N 53°40' E 004°19'2 5.2
2017-Jun-19 22:01N 53°39' E 004°17'3204.7
2017-Jun-19 22:00N 53°42' E 004°18'511.1 1018.7
2017-Jun-19 21:30N 53°37' E 004°14'0 0.2
2017-Jun-19 21:00N 53°37' E 004°14'2162.8
2017-Jun-19 21:00N 53°36' E 004°12'1 2.2 1018.7
2017-Jun-19 20:27N 53°37' E 004°13'0 0.9
2017-Jun-19 20:00N 53°37' E 004°14'1421.1
2017-Jun-19 20:00N 53°36' E 004°12'3 6.5 1018.8
2017-Jun-19 19:30N 53°37' E 004°17'1 2.8
2017-Jun-19 19:00N 53°36' E 004°18'3181.8 1018.6
2017-Jun-19 18:59N 53°38' E 004°20'2 4.0
2017-Jun-19 18:29N 53°38' E 004°24'510.5
2017-Jun-19 18:00N 53°42' E 004°30'41361.0 1018.5
2017-Jun-19 17:59N 53°39' E 004°27'2 4.0
2017-Jun-19 17:30N 53°41' E 004°28'2 3.7
2017-Jun-19 17:00N 53°42' E 004°30'01716.4 1018.4
2017-Jun-19 16:59N 53°42' E 004°29'2 4.0
2017-Jun-19 16:29N 53°40' E 004°29'2 4.0
2017-Jun-19 16:00N 53°38' E 004°28'2243.4
2017-Jun-19 16:00N 53°36' E 004°30'3 6.7 1018.9
2017-Jun-19 15:30N 53°39' E 004°27'4 7.2
2017-Jun-19 15:00N 53°42' E 004°24'1 4.4 1019.2
2017-Jun-19 14:47N 53°41' E 004°25'1 3.9
2017-Jun-19 14:30N 53°42' E 004°25'1 1.1
2017-Jun-19 14:00N 53°42' E 004°24'7 7.0 1019.6
2017-Jun-19 13:00N 53°48' E 004°30'7 7.0 1020.0
2017-Jun-19 12:00N 53°54' E 004°36'4 3.5 1020.5
2017-Jun-19 11:00N 53°54' E 004°30'0 0.0 1021.0
2017-Jun-19 10:00N 53°54' E 004°30'0 0.0 1021.2
2017-Jun-19 09:00N 53°54' E 004°30'6 6.0 1021.4
2017-Jun-19 08:00N 54°00' E 004°30'7 7.1 1021.6
2017-Jun-19 07:00N 54°00' E 004°18'0 0.0 1021.7
2017-Jun-19 06:00N 54°00' E 004°18'7 7.0 1021.9
2017-Jun-19 05:00N 54°06' E 004°24'0 0.0 1021.8
2017-Jun-19 04:00N 54°06' E 004°24'0 0.0 1021.9
2017-Jun-19 03:00N 54°06' E 004°24'4 3.5 1022.0
2017-Jun-19 02:00N 54°06' E 004°18'0 0.0 1022.2
2017-Jun-19 01:00N 54°06' E 004°18'7 7.0 1022.7
2017-Jun-19 00:00N 54°00' E 004°24'4 3.5 160 / 91022.910.8 16.8 16.2
2017-Jun-18 23:00N 54°00' E 004°30'6 6.0 1023.1
2017-Jun-18 22:00N 53°54' E 004°30'0 0.0 1023.4
2017-Jun-18 21:00N 53°54' E 004°30'0 0.0 1023.5
2017-Jun-18 20:00N 53°54' E 004°30'6 6.0 1023.3
2017-Jun-18 19:00N 54°00' E 004°30'4 3.5 1023.1
2017-Jun-18 18:00N 54°00' E 004°24'7 7.0 200 / 71023.410.8 17.0 16.4
2017-Jun-18 17:00N 54°06' E 004°18'4 3.5 1023.5
2017-Jun-18 16:00N 54°06' E 004°12'6 6.0 1023.6
2017-Jun-18 15:00N 54°12' E 004°12'7 7.0 1023.8
2017-Jun-18 14:00N 54°06' E 004°06'0 0.0 1024.0
2017-Jun-18 13:00N 54°06' E 004°06'0 0.0 1024.3
2017-Jun-18 12:00N 54°06' E 004°06'0 0.0 1024.6
2017-Jun-18 11:00N 54°06' E 004°06'0 0.0 1024.8
2017-Jun-18 10:00N 54°06' E 004°06'4 3.5 1024.7
2017-Jun-18 09:00N 54°06' E 004°12'4 3.5 1024.9
2017-Jun-18 08:00N 54°06' E 004°06'0 0.0 1024.9
2017-Jun-18 07:00N 54°06' E 004°06'0 0.0 1024.9
2017-Jun-18 06:00N 54°06' E 004°06'4 3.5 1024.8
2017-Jun-18 05:00N 54°06' E 004°12'0 0.0 1024.6
2017-Jun-18 04:00N 54°06' E 004°12'4 3.5 1024.6
2017-Jun-18 03:00N 54°06' E 004°06'0 0.0 1024.5
2017-Jun-18 02:00N 54°06' E 004°06'0 0.0 1024.8
2017-Jun-18 01:00N 54°06' E 004°06'4 3.5 1024.8
2017-Jun-18 00:00N 54°06' E 004°12'325.1 1025.4
2017-Jun-17 23:51N 54°03' E 004°14'2 6.2
2017-Jun-17 23:30N 54°01' E 004°16'1 2.9
2017-Jun-17 23:00N 54°00' E 004°18'6 8.6 1025.7
2017-Jun-17 22:19N 53°55' E 004°21'2 5.6
2017-Jun-17 22:00N 53°54' E 004°24'238.6 1025.7
2017-Jun-17 21:57N 53°52' E 004°23'3 6.2
2017-Jun-17 21:25N 53°50' E 004°25'3 6.3
2017-Jun-17 21:00N 53°47' E 004°27'2214.3
2017-Jun-17 21:00N 53°48' E 004°30'4 7.0 1025.4
2017-Jun-17 20:29N 53°44' E 004°30'4 8.7
2017-Jun-17 20:00N 53°42' E 004°36'235.8 1025.2
2017-Jun-17 19:56N 53°42' E 004°33'3 6.1
2017-Jun-17 19:25N 53°39' E 004°36'3 7.0
2017-Jun-17 19:00N 53°36' E 004°36'1163.5 1025.3
2017-Jun-17 18:59N 53°37' E 004°38'4 5.8
2017-Jun-17 18:23N 53°34' E 004°41'4 9.6
2017-Jun-17 18:00N 53°30' E 004°42'232.9 270 / 71025.310.8 15.6 16.0
2017-Jun-17 17:57N 53°31' E 004°43'3 5.5
2017-Jun-17 17:24N 53°29' E 004°45'512.2
2017-Jun-17 17:00N 53°24' E 004°48'215.2 1025.2
2017-Jun-17 16:52N 53°26' E 004°47'2 5.7
2017-Jun-17 16:29N 53°24' E 004°48'0 0.4
2017-Jun-17 16:00N 53°24' E 004°48'3156.2 1025.4
2017-Jun-17 15:58N 53°21' E 004°51'1 2.0
2017-Jun-17 15:24N 53°20' E 004°52'3 6.8
2017-Jun-17 15:00N 53°18' E 004°54'338.5 1025.6
2017-Jun-17 14:55N 53°20' E 004°52'3 3.5
2017-Jun-17 14:00N 53°18' E 004°48'0 0.0 1025.9
2017-Jun-17 13:00N 53°18' E 004°48'0 0.0 1025.7
2017-Jun-17 12:00N 53°18' E 004°48'0 0.0 1025.3
2017-Jun-17 11:00N 53°18' E 004°48'0 0.0 1025.3
2017-Jun-17 10:00N 53°18' E 004°48'3 6.2 1025.3
2017-Jun-17 09:26N 53°21' E 004°51'1 2.3
2017-Jun-17 09:01N 53°20' E 004°51'3157.5
2017-Jun-17 09:00N 53°18' E 004°48'4 8.1 1025.0
2017-Jun-17 08:30N 53°22' E 004°51'4 7.9
2017-Jun-17 08:00N 53°18' E 004°48'3886.7 1024.5
2017-Jun-17 07:59N 53°20' E 004°51'2 3.5
2017-Jun-17 07:29N 53°21' E 004°53'3 5.7
2017-Jun-17 07:00N 53°24' E 004°54'3240.5 1024.1
2017-Jun-17 06:59N 53°21' E 004°53'2 3.6
2017-Jun-17 06:30N 53°20' E 004°51'3 4.9
2017-Jun-17 06:00N 53°18' E 004°48'3181.4 280 / 141024.010.8 15.6 16.6
2017-Jun-17 05:59N 53°20' E 004°51'2 4.2
2017-Jun-17 05:30N 53°19' E 004°49'1 2.4
2017-Jun-17 05:00N 53°18' E 004°48'6 6.0 1023.7
2017-Jun-17 04:00N 53°24' E 004°48'0 0.0 1023.7
2017-Jun-17 03:00N 53°24' E 004°48'0 0.0 1023.4
2017-Jun-17 02:00N 53°24' E 004°48'6 6.0 1023.5
2017-Jun-17 01:00N 53°18' E 004°48'0 0.0 1023.7
2017-Jun-17 00:00N 53°18' E 004°48'6 6.0 1023.8
2017-Jun-16 23:00N 53°24' E 004°48'0 0.0 1023.9
2017-Jun-16 22:00N 53°24' E 004°48'0 0.0 1023.9
2017-Jun-16 21:00N 53°24' E 004°48'0 0.0 1023.8
2017-Jun-16 20:00N 53°24' E 004°48'0 0.0 1023.5
2017-Jun-16 19:00N 53°24' E 004°48'337.1 1023.5
2017-Jun-16 18:55N 53°21' E 004°49'1 0.9
2017-Jun-16 17:21N 53°20' E 004°50'3 7.2
2017-Jun-16 17:00N 53°18' E 004°48'333.3 1022.7
2017-Jun-16 16:55N 53°20' E 004°51'3 3.0
2017-Jun-16 16:00N 53°18' E 004°48'611.2 1022.3
2017-Jun-16 15:26N 53°12' E 004°44'4 8.3
2017-Jun-16 15:00N 53°09' E 004°41'3375.4
2017-Jun-16 15:00N 53°12' E 004°42'714.4 1022.4
2017-Jun-16 14:31N 53°05' E 004°38'610.9
2017-Jun-16 14:00N 53°00' E 004°36'3 5.7 1022.1
2017-Jun-16 13:30N 52°58' E 004°33'4 7.3
2017-Jun-16 13:01N 52°54' E 004°34'160.6
2017-Jun-16 13:00N 52°54' E 004°36'2 3.3 1021.8
2017-Jun-16 12:31N 52°54' E 004°39'510.4
2017-Jun-16 12:00N 52°58' E 004°44'2128.8
2017-Jun-16 12:00N 53°00' E 004°42'3 5.7 1021.0
2017-Jun-16 11:23N 53°00' E 004°48'0 1.1
2017-Jun-16 11:00N 53°00' E 004°48'038.8 1020.5
2017-Jun-16 10:59N 53°00' E 004°48'0 0.0
2017-Jun-16 10:26N 53°00' E 004°48'0 1.0
2017-Jun-16 10:00N 53°00' E 004°48'036.9 1020.0
2017-Jun-16 09:59N 53°00' E 004°48'0 0.0
2017-Jun-16 09:29N 53°00' E 004°48'0 0.9
2017-Jun-16 09:00N 53°00' E 004°48'0 7.0 1019.4
2017-Jun-16 08:56N 53°00' E 004°48'0 0.0
2017-Jun-16 08:23N 53°00' E 004°48'0 1.1
2017-Jun-16 08:00N 53°00' E 004°48'0 6.9 1018.6
2017-Jun-16 07:56N 53°00' E 004°48'0 0.0
2017-Jun-16 07:26N 53°00' E 004°48'0 1.0
2017-Jun-16 07:00N 53°00' E 004°48'0 6.9 1018.0
2017-Jun-16 06:56N 53°00' E 004°48'0 0.0
2017-Jun-16 06:29N 53°00' E 004°48'0 0.9
2017-Jun-16 06:00N 53°00' E 004°48'0 6.8 1017.7
2017-Jun-16 05:56N 53°00' E 004°48'0 0.0
2017-Jun-16 05:29N 53°00' E 004°48'0 0.9
2017-Jun-16 05:00N 53°00' E 004°48'031.7 1017.0
2017-Jun-16 04:59N 53°00' E 004°48'0 0.0
2017-Jun-16 04:29N 53°00' E 004°48'0 0.9
2017-Jun-16 04:00N 53°00' E 004°48'0 6.7 1016.6
2017-Jun-16 03:56N 53°00' E 004°48'0 0.0
2017-Jun-16 03:29N 53°00' E 004°48'0 0.9
2017-Jun-16 03:00N 53°00' E 004°48'029.3 1015.9
2017-Jun-16 02:59N 53°00' E 004°48'0 0.0
2017-Jun-16 02:29N 53°00' E 004°48'0 0.9
2017-Jun-16 02:00N 53°00' E 004°48'028.7 1015.4
2017-Jun-16 01:59N 53°00' E 004°48'0 0.0
2017-Jun-16 01:26N 53°00' E 004°48'0 1.0
2017-Jun-16 01:00N 53°00' E 004°48'027.7 1015.0
2017-Jun-16 00:59N 53°00' E 004°48'0 0.0
2017-Jun-16 00:29N 53°00' E 004°48'0 0.9
2017-Jun-16 00:00N 53°00' E 004°48'027.2 1014.2
2017-Jun-15 23:59N 53°00' E 004°48'0 0.0
2017-Jun-15 23:29N 53°00' E 004°48'0 0.9
2017-Jun-15 23:00N 53°00' E 004°48'025.8 1014.1
2017-Jun-15 22:59N 53°00' E 004°48'0 0.0
2017-Jun-15 22:29N 53°00' E 004°48'0 0.9
2017-Jun-15 22:00N 53°00' E 004°48'025.4 1013.7
2017-Jun-15 21:58N 53°00' E 004°48'0 0.0
2017-Jun-15 21:22N 53°00' E 004°48'0 1.1
2017-Jun-15 21:00N 53°00' E 004°48'024.6 1013.4
2017-Jun-15 20:58N 53°00' E 004°48'0 0.0
2017-Jun-15 20:28N 53°00' E 004°48'0 0.9
2017-Jun-15 20:00N 53°00' E 004°48'0 6.4 1012.9
2017-Jun-15 19:55N 53°00' E 004°48'0 0.0
2017-Jun-15 19:28N 53°00' E 004°48'0 0.9
2017-Jun-15 19:00N 53°00' E 004°48'023.5 1012.6
2017-Jun-15 18:58N 53°00' E 004°48'0 0.0
2017-Jun-15 18:25N 53°00' E 004°48'0 1.0
2017-Jun-15 18:00N 53°00' E 004°48'022.8 1012.6
2017-Jun-15 17:58N 53°00' E 004°48'0 0.0
2017-Jun-15 17:28N 53°00' E 004°48'0 0.9
2017-Jun-15 17:00N 53°00' E 004°48'022.5 1012.6
2017-Jun-15 16:58N 53°00' E 004°48'0 0.0
2017-Jun-15 16:28N 53°00' E 004°48'0 0.9
2017-Jun-15 16:00N 53°00' E 004°48'021.8 1012.5
2017-Jun-15 15:58N 53°00' E 004°48'0 0.0
2017-Jun-15 15:25N 53°00' E 004°48'0 1.0
2017-Jun-15 15:00N 53°00' E 004°48'021.5 1012.8
2017-Jun-15 14:58N 53°00' E 004°48'0 0.0
2017-Jun-15 14:25N 53°00' E 004°48'0 1.0
2017-Jun-15 14:00N 53°00' E 004°48'0 0.8 1012.6
2017-Jun-15 13:28N 53°00' E 004°48'0 0.9
2017-Jun-15 13:00N 53°00' E 004°48'020.7
2017-Jun-15 12:58N 53°00' E 004°48'0 0.0
2017-Jun-15 12:28N 53°00' E 004°48'0 0.9
2017-Jun-15 12:00N 53°00' E 004°48'0 3.5
2017-Jun-15 11:52N 53°00' E 004°48'0 0.0
2017-Jun-15 11:28N 53°00' E 004°48'0 0.9
2017-Jun-15 11:00N 53°00' E 004°48'0 3.5
2017-Jun-15 10:52N 53°00' E 004°48'0 0.0
2017-Jun-15 10:25N 53°00' E 004°48'0 1.0
2017-Jun-15 10:00N 53°00' E 004°48'019.1
2017-Jun-15 09:58N 53°00' E 004°48'0 0.0
2017-Jun-15 09:28N 53°00' E 004°48'0 0.9
2017-Jun-15 09:00N 53°00' E 004°48'018.9
2017-Jun-15 08:58N 53°00' E 004°48'0 0.0
2017-Jun-15 08:28N 53°00' E 004°48'0 0.0
2017-Jun-15 07:58N 53°00' E 004°48'0 0.0
2017-Jun-15 07:28N 53°00' E 004°48'0 0.0
2017-Jun-15 06:55N 53°00' E 004°48'0 0.0
2017-Jun-15 06:28N 53°00' E 004°48'0 0.9
2017-Jun-15 06:00N 53°00' E 004°48'0 3.5
2017-Jun-15 05:52N 53°00' E 004°48'0 0.0
2017-Jun-15 05:28N 53°00' E 004°48'0 0.9
2017-Jun-15 05:00N 53°00' E 004°48'017.6
2017-Jun-15 04:58N 53°00' E 004°48'0 0.0
2017-Jun-15 04:28N 53°00' E 004°48'0 0.3
2017-Jun-15 04:00N 53°00' E 004°48'023.5
2017-Jun-15 04:00N 53°00' E 004°48'1 1.2
2017-Jun-15 03:30N 53°00' E 004°49'0 0.7
2017-Jun-15 03:00N 53°00' E 004°48'019.0
2017-Jun-15 03:00N 53°00' E 004°48'0 0.8
2017-Jun-15 02:30N 52°60' E 004°48'2 3.4
2017-Jun-15 02:00N 52°59' E 004°45'2125.4
2017-Jun-15 02:00N 53°00' E 004°48'4 8.4
2017-Jun-15 01:30N 52°57' E 004°43'2 4.1
2017-Jun-15 01:00N 52°56' E 004°41'2132.2
2017-Jun-15 01:00N 52°54' E 004°42'2 3.7
2017-Jun-15 00:30N 52°54' E 004°39'2 4.1
2017-Jun-15 00:00N 52°53' E 004°37'188.1
2017-Jun-15 00:00N 52°54' E 004°36'  
Track history (hours):
 
Tides and Currents Weather Stations Pressure Air Temp Water Temp Dewpoint Dewpoint Depression Visibility Wind Speed Wind Dir Waves Ship Positions

Oceanographic research ship Pelagia (Netherlands)

Detailed information on ship capabilities available from University of Delaware's Ocean Information Center and ARCUS's ALIAS (Arctic Logistics Information and Support) project.

Last reported at 2017-Jun-25 00:00 UTC. Time now 2017-Jun-25 15:49 UTC.
Position N 53°54' E 003°06'.

Length 66 m; beam 13 m.

Type: Other ship. MMSI: 244925000.

Wind from 250 at 18 knots

Barometer 1008.8 mb
Air temperature 15.2 ° C
Visibility: greater than 10.8 NM
Water temperature 17.3 ° C

Date/timePositionNaut miles runAvg speedWind from/ knotsBaromVisibWave heightAir tempDewpointWater temp
2017-Jun-25 00:00N 53°54' E 003°06'39 2.4 250 / 181008.810.8 15.2 17.3
2017-Jun-24 07:15N 53°36' E 004°06'0 0.2
2017-Jun-24 06:48N 53°36' E 004°05'0 0.2
2017-Jun-24 06:30N 53°36' E 004°05'0 0.0
2017-Jun-24 06:00N 53°36' E 004°05'38 2.7
2017-Jun-23 16:09N 53°28' E 005°07'2 9.1
2017-Jun-23 15:57N 53°26' E 005°06'811.7
2017-Jun-23 15:16N 53°21' E 004°55'311.5
2017-Jun-23 15:00N 53°19' E 004°52'811.4
2017-Jun-23 14:21N 53°13' E 004°46'2 1.9
2017-Jun-23 13:22N 53°11' E 004°47'1 1.7
2017-Jun-23 12:55N 53°11' E 004°46'3 8.1
2017-Jun-23 12:30N 53°09' E 004°42'4 8.7
2017-Jun-23 12:00N 53°05' E 004°38'4 8.7
2017-Jun-23 11:31N 53°01' E 004°35'4 8.0
2017-Jun-23 11:01N 52°57' E 004°33'4 8.5
2017-Jun-23 10:31N 52°53' E 004°35'4 7.6
2017-Jun-23 10:01N 52°56' E 004°40'510.2
2017-Jun-23 09:31N 52°59' E 004°46'2 3.1
2017-Jun-23 08:58N 53°00' E 004°48'0 0.0
2017-Jun-23 08:28N 53°00' E 004°48'0 0.0
2017-Jun-23 07:58N 53°00' E 004°48'0 0.0
2017-Jun-23 07:28N 53°00' E 004°48'0 0.0
2017-Jun-23 06:58N 53°00' E 004°48'0 0.0
2017-Jun-23 06:28N 53°00' E 004°48'0 0.0
2017-Jun-23 05:55N 53°00' E 004°48'0 0.0
2017-Jun-23 05:28N 53°00' E 004°48'0 0.4
2017-Jun-23 05:01N 53°00' E 004°48'1 2.0
2017-Jun-23 04:30N 53°01' E 004°50'0 0.1
2017-Jun-23 04:00N 53°01' E 004°50'2 4.8
2017-Jun-23 03:30N 52°59' E 004°47'3 6.4
2017-Jun-23 03:00N 52°57' E 004°42'3 6.0
2017-Jun-23 02:30N 52°55' E 004°40'3 5.7
2017-Jun-23 02:00N 52°53' E 004°36'2 4.4
2017-Jun-23 01:30N 52°53' E 004°32'1 1.0
2017-Jun-23 01:00N 52°52' E 004°33'0 0.6
2017-Jun-23 00:30N 52°52' E 004°33'1 1.7
2017-Jun-23 00:01N 52°52' E 004°32'2117.0
2017-Jun-23 00:00N 52°54' E 004°30'1 2.1 270 / 181012.9 5.4 17.2 17.7
2017-Jun-22 23:30N 52°53' E 004°29'0 0.3
2017-Jun-22 23:00N 52°53' E 004°29'0 0.1
2017-Jun-22 22:30N 52°53' E 004°29'1 1.3
2017-Jun-22 22:00N 52°53' E 004°30'0 0.7
2017-Jun-22 21:30N 52°53' E 004°30'1 1.3
2017-Jun-22 21:00N 52°53' E 004°30'3 6.2
2017-Jun-22 20:31N 52°54' E 004°25'3 6.2
2017-Jun-22 20:01N 52°56' E 004°20'15 2.1
2017-Jun-22 12:46N 53°05' E 003°60'1 0.3
2017-Jun-22 10:34N 53°05' E 003°59'0 0.3
2017-Jun-22 10:30N 53°05' E 003°59'0 0.0
2017-Jun-22 10:00N 53°05' E 003°59'0 0.0
2017-Jun-22 09:29N 53°05' E 003°59'1 2.8
2017-Jun-22 08:58N 53°04' E 003°60'2 2.9
2017-Jun-22 08:20N 53°02' E 004°01'1 2.7
2017-Jun-22 07:59N 53°01' E 004°00'1 1.7
2017-Jun-22 07:30N 53°02' E 004°01'2 3.4
2017-Jun-22 07:00N 53°03' E 003°59'3 4.0
2017-Jun-22 06:22N 53°05' E 003°59'1 1.5
2017-Jun-22 06:00N 53°06' E 003°59'1 2.4
2017-Jun-22 05:27N 53°04' E 003°59'1 3.2
2017-Jun-22 05:00N 53°04' E 003°57'1 2.8
2017-Jun-22 04:29N 53°04' E 003°59'5 3.8
2017-Jun-22 03:15N 53°08' E 004°03'18 5.6
2017-Jun-22 00:00N 53°24' E 004°18'5 3.2 140 / 171013.410.8 19.5 15.2
2017-Jun-21 22:24N 53°27' E 004°24'1 1.8
2017-Jun-21 21:59N 53°27' E 004°26'1 1.9
2017-Jun-21 21:30N 53°27' E 004°27'1 1.8
2017-Jun-21 21:01N 53°28' E 004°29'1 1.4
2017-Jun-21 20:30N 53°28' E 004°30'1 3.0
2017-Jun-21 20:01N 53°26' E 004°30'2 3.1
2017-Jun-21 19:25N 53°25' E 004°29'1 3.2
2017-Jun-21 19:00N 53°24' E 004°28'2 3.5
2017-Jun-21 18:29N 53°22' E 004°26'1 2.9
2017-Jun-21 18:01N 53°24' E 004°25'2 0.5
2017-Jun-21 12:46N 53°22' E 004°22'0 0.7
2017-Jun-21 12:24N 53°21' E 004°22'1 2.4
2017-Jun-21 11:47N 53°22' E 004°21'1 3.8
2017-Jun-21 11:29N 53°24' E 004°20'5 3.7
2017-Jun-21 10:07N 53°28' E 004°16'0 3.4
2017-Jun-21 10:00N 53°28' E 004°16'1 2.4
2017-Jun-21 09:26N 53°29' E 004°14'5 6.0
2017-Jun-21 08:32N 53°35' E 004°16'3 9.0
2017-Jun-21 08:15N 53°37' E 004°17'4 2.5
2017-Jun-21 06:41N 53°38' E 004°23'0 0.0
2017-Jun-21 06:29N 53°38' E 004°23'0 0.0
2017-Jun-21 06:00N 53°38' E 004°23'2 1.6
2017-Jun-21 04:51N 53°39' E 004°26'1 0.6
2017-Jun-21 03:34N 53°39' E 004°25'0 1.5
2017-Jun-21 03:30N 53°39' E 004°25'1 1.3
2017-Jun-21 02:21N 53°38' E 004°22'0 1.1
2017-Jun-21 01:54N 53°38' E 004°21'0 1.0
2017-Jun-21 01:25N 53°38' E 004°21'3 5.9
2017-Jun-21 01:00N 53°36' E 004°18'2132.2 1021.3
2017-Jun-21 00:59N 53°37' E 004°20'5 5.9
2017-Jun-21 00:06N 53°33' E 004°15'327.4
2017-Jun-21 00:00N 53°36' E 004°12'417.3 080 / 131021.710.8 14.4 15.0
2017-Jun-20 23:45N 53°32' E 004°13'1 5.5
2017-Jun-20 23:29N 53°31' E 004°11'3 5.9
2017-Jun-20 23:00N 53°30' E 004°06'180.5 1021.7
2017-Jun-20 22:59N 53°29' E 004°07'3 5.2
2017-Jun-20 22:30N 53°27' E 004°06'3 5.5
2017-Jun-20 22:00N 53°24' E 004°05'0163.6
2017-Jun-20 22:00N 53°24' E 004°06'2 3.9 1021.5
2017-Jun-20 21:29N 53°22' E 004°06'2 4.1
2017-Jun-20 21:00N 53°24' E 004°06'318.4 1021.7
2017-Jun-20 20:51N 53°21' E 004°07'0 0.8
2017-Jun-20 20:30N 53°21' E 004°07'0 1.0
2017-Jun-20 20:00N 53°21' E 004°06'3243.8
2017-Jun-20 20:00N 53°24' E 004°06'2 3.5 1021.4
2017-Jun-20 19:30N 53°22' E 004°06'2 3.3
2017-Jun-20 19:00N 53°24' E 004°06'2 4.7 1021.2
2017-Jun-20 18:40N 53°26' E 004°06'1 3.9
2017-Jun-20 18:30N 53°26' E 004°05'2 3.9
2017-Jun-20 18:00N 53°28' E 004°05'2254.2
2017-Jun-20 18:00N 53°30' E 004°06'0 0.0 050 / 181021.310.8 14.8 15.2
2017-Jun-20 17:00N 53°30' E 004°06'4 9.3 1021.4
2017-Jun-20 16:36N 53°34' E 004°05'0 4.0
2017-Jun-20 16:30N 53°34' E 004°05'2 4.1
2017-Jun-20 16:00N 53°36' E 004°06'9 9.3 1021.7
2017-Jun-20 15:00N 53°42' E 004°18'4 3.6 1022.1
2017-Jun-20 14:00N 53°42' E 004°24'0 0.0
2017-Jun-20 13:00N 53°42' E 004°24'6 6.0 1021.6
2017-Jun-20 12:00N 53°48' E 004°24'0 0.0 1021.7
2017-Jun-20 11:00N 53°48' E 004°24'4 3.5 1021.9
2017-Jun-20 10:00N 53°48' E 004°30'3 5.5 1021.5
2017-Jun-20 09:23N 53°45' E 004°30'3 8.4
2017-Jun-20 09:00N 53°48' E 004°30'0 0.0 1021.1
2017-Jun-20 08:00N 53°48' E 004°30'417.3 1020.5
2017-Jun-20 07:47N 53°44' E 004°30'0 1.6
2017-Jun-20 07:29N 53°44' E 004°30'1 1.7
2017-Jun-20 07:00N 53°45' E 004°30'31149.4
2017-Jun-20 07:00N 53°48' E 004°30'2 3.0 1020.1
2017-Jun-20 06:24N 53°46' E 004°29'2 4.4
2017-Jun-20 06:00N 53°48' E 004°30'314.2 060 / 151019.5 5.4 15.6 16.2
2017-Jun-20 05:48N 53°45' E 004°30'2 6.1
2017-Jun-20 05:25N 53°43' E 004°28'2 3.7
2017-Jun-20 05:00N 53°42' E 004°30'1167.3 1019.0
2017-Jun-20 04:59N 53°43' E 004°28'1 1.5
2017-Jun-20 04:00N 53°42' E 004°30'3 3.8 1018.4
2017-Jun-20 03:14N 53°45' E 004°29'313.0
2017-Jun-20 03:00N 53°48' E 004°30'0 0.0 1018.3
2017-Jun-20 02:00N 53°48' E 004°30'0 0.0 1018.4
2017-Jun-20 01:00N 53°48' E 004°30'2 5.2 1018.3
2017-Jun-20 00:39N 53°46' E 004°29'2 2.8
2017-Jun-20 00:00N 53°48' E 004°30'7 7.1 360 / 51018.5 5.4 17.9 18.0
2017-Jun-19 23:03N 53°43' E 004°23'116.7
2017-Jun-19 23:00N 53°42' E 004°24'2 7.5 1018.5
2017-Jun-19 22:47N 53°42' E 004°21'2 5.4
2017-Jun-19 22:25N 53°40' E 004°19'2 5.2
2017-Jun-19 22:01N 53°39' E 004°17'3204.7
2017-Jun-19 22:00N 53°42' E 004°18'511.1 1018.7
2017-Jun-19 21:30N 53°37' E 004°14'0 0.2
2017-Jun-19 21:00N 53°37' E 004°14'2162.8
2017-Jun-19 21:00N 53°36' E 004°12'1 2.2 1018.7
2017-Jun-19 20:27N 53°37' E 004°13'0 0.9
2017-Jun-19 20:00N 53°37' E 004°14'1421.1
2017-Jun-19 20:00N 53°36' E 004°12'3 6.5 1018.8
2017-Jun-19 19:30N 53°37' E 004°17'1 2.8
2017-Jun-19 19:00N 53°36' E 004°18'3181.8 1018.6
2017-Jun-19 18:59N 53°38' E 004°20'2 4.0
2017-Jun-19 18:29N 53°38' E 004°24'510.5
2017-Jun-19 18:00N 53°42' E 004°30'41361.0 1018.5
2017-Jun-19 17:59N 53°39' E 004°27'2 4.0
2017-Jun-19 17:30N 53°41' E 004°28'2 3.7
2017-Jun-19 17:00N 53°42' E 004°30'01716.4 1018.4
2017-Jun-19 16:59N 53°42' E 004°29'2 4.0
2017-Jun-19 16:29N 53°40' E 004°29'2 4.0
2017-Jun-19 16:00N 53°38' E 004°28'2243.4
2017-Jun-19 16:00N 53°36' E 004°30'3 6.7 1018.9
2017-Jun-19 15:30N 53°39' E 004°27'4 7.2
2017-Jun-19 15:00N 53°42' E 004°24'1 4.4 1019.2
2017-Jun-19 14:47N 53°41' E 004°25'1 3.9
2017-Jun-19 14:30N 53°42' E 004°25'1 1.1
2017-Jun-19 14:00N 53°42' E 004°24'7 7.0 1019.6
2017-Jun-19 13:00N 53°48' E 004°30'7 7.0 1020.0
2017-Jun-19 12:00N 53°54' E 004°36'4 3.5 1020.5
2017-Jun-19 11:00N 53°54' E 004°30'0 0.0 1021.0
2017-Jun-19 10:00N 53°54' E 004°30'0 0.0 1021.2
2017-Jun-19 09:00N 53°54' E 004°30'6 6.0 1021.4
2017-Jun-19 08:00N 54°00' E 004°30'7 7.1 1021.6
2017-Jun-19 07:00N 54°00' E 004°18'0 0.0 1021.7
2017-Jun-19 06:00N 54°00' E 004°18'7 7.0 1021.9
2017-Jun-19 05:00N 54°06' E 004°24'0 0.0 1021.8
2017-Jun-19 04:00N 54°06' E 004°24'0 0.0 1021.9
2017-Jun-19 03:00N 54°06' E 004°24'4 3.5 1022.0
2017-Jun-19 02:00N 54°06' E 004°18'0 0.0 1022.2
2017-Jun-19 01:00N 54°06' E 004°18'7 7.0 1022.7
2017-Jun-19 00:00N 54°00' E 004°24'4 3.5 160 / 91022.910.8 16.8 16.2
2017-Jun-18 23:00N 54°00' E 004°30'6 6.0 1023.1
2017-Jun-18 22:00N 53°54' E 004°30'0 0.0 1023.4
2017-Jun-18 21:00N 53°54' E 004°30'0 0.0 1023.5
2017-Jun-18 20:00N 53°54' E 004°30'6 6.0 1023.3
2017-Jun-18 19:00N 54°00' E 004°30'4 3.5 1023.1
2017-Jun-18 18:00N 54°00' E 004°24'7 7.0 200 / 71023.410.8 17.0 16.4
2017-Jun-18 17:00N 54°06' E 004°18'4 3.5 1023.5
2017-Jun-18 16:00N 54°06' E 004°12'6 6.0 1023.6
2017-Jun-18 15:00N 54°12' E 004°12'7 7.0 1023.8
2017-Jun-18 14:00N 54°06' E 004°06'0 0.0 1024.0
2017-Jun-18 13:00N 54°06' E 004°06'0 0.0 1024.3
2017-Jun-18 12:00N 54°06' E 004°06'0 0.0 1024.6
2017-Jun-18 11:00N 54°06' E 004°06'0 0.0 1024.8
2017-Jun-18 10:00N 54°06' E 004°06'4 3.5 1024.7
2017-Jun-18 09:00N 54°06' E 004°12'4 3.5 1024.9
2017-Jun-18 08:00N 54°06' E 004°06'0 0.0 1024.9
2017-Jun-18 07:00N 54°06' E 004°06'0 0.0 1024.9
2017-Jun-18 06:00N 54°06' E 004°06'4 3.5 1024.8
2017-Jun-18 05:00N 54°06' E 004°12'0 0.0 1024.6
2017-Jun-18 04:00N 54°06' E 004°12'4 3.5 1024.6
2017-Jun-18 03:00N 54°06' E 004°06'0 0.0 1024.5
2017-Jun-18 02:00N 54°06' E 004°06'0 0.0 1024.8
2017-Jun-18 01:00N 54°06' E 004°06'4 3.5 1024.8
2017-Jun-18 00:00N 54°06' E 004°12'325.1 1025.4
2017-Jun-17 23:51N 54°03' E 004°14'2 6.2
2017-Jun-17 23:30N 54°01' E 004°16'1 2.9
2017-Jun-17 23:00N 54°00' E 004°18'6 8.6 1025.7
2017-Jun-17 22:19N 53°55' E 004°21'2 5.6
2017-Jun-17 22:00N 53°54' E 004°24'238.6 1025.7
2017-Jun-17 21:57N 53°52' E 004°23'3 6.2
2017-Jun-17 21:25N 53°50' E 004°25'3 6.3
2017-Jun-17 21:00N 53°47' E 004°27'2214.3
2017-Jun-17 21:00N 53°48' E 004°30'4 7.0 1025.4
2017-Jun-17 20:29N 53°44' E 004°30'4 8.7
2017-Jun-17 20:00N 53°42' E 004°36'235.8 1025.2
2017-Jun-17 19:56N 53°42' E 004°33'3 6.1
2017-Jun-17 19:25N 53°39' E 004°36'3 7.0
2017-Jun-17 19:00N 53°36' E 004°36'1163.5 1025.3
2017-Jun-17 18:59N 53°37' E 004°38'4 5.8
2017-Jun-17 18:23N 53°34' E 004°41'4 9.6
2017-Jun-17 18:00N 53°30' E 004°42'232.9 270 / 71025.310.8 15.6 16.0
2017-Jun-17 17:57N 53°31' E 004°43'3 5.5
2017-Jun-17 17:24N 53°29' E 004°45'512.2
2017-Jun-17 17:00N 53°24' E 004°48'215.2 1025.2
2017-Jun-17 16:52N 53°26' E 004°47'2 5.7
2017-Jun-17 16:29N 53°24' E 004°48'0 0.4
2017-Jun-17 16:00N 53°24' E 004°48'3156.2 1025.4
2017-Jun-17 15:58N 53°21' E 004°51'1 2.0
2017-Jun-17 15:24N 53°20' E 004°52'3 6.8
2017-Jun-17 15:00N 53°18' E 004°54'338.5 1025.6
2017-Jun-17 14:55N 53°20' E 004°52'3 3.5
2017-Jun-17 14:00N 53°18' E 004°48'0 0.0 1025.9
2017-Jun-17 13:00N 53°18' E 004°48'0 0.0 1025.7
2017-Jun-17 12:00N 53°18' E 004°48'0 0.0 1025.3
2017-Jun-17 11:00N 53°18' E 004°48'0 0.0 1025.3
2017-Jun-17 10:00N 53°18' E 004°48'3 6.2 1025.3
2017-Jun-17 09:26N 53°21' E 004°51'1 2.3
2017-Jun-17 09:01N 53°20' E 004°51'3157.5
2017-Jun-17 09:00N 53°18' E 004°48'4 8.1 1025.0
2017-Jun-17 08:30N 53°22' E 004°51'4 7.9
2017-Jun-17 08:00N 53°18' E 004°48'3886.7 1024.5
2017-Jun-17 07:59N 53°20' E 004°51'2 3.5
2017-Jun-17 07:29N 53°21' E 004°53'3 5.7
2017-Jun-17 07:00N 53°24' E 004°54'3240.5 1024.1
2017-Jun-17 06:59N 53°21' E 004°53'2 3.6
2017-Jun-17 06:30N 53°20' E 004°51'3 4.9
2017-Jun-17 06:00N 53°18' E 004°48'3181.4 280 / 141024.010.8 15.6 16.6
2017-Jun-17 05:59N 53°20' E 004°51'2 4.2
2017-Jun-17 05:30N 53°19' E 004°49'1 2.4
2017-Jun-17 05:00N 53°18' E 004°48'6 6.0 1023.7
2017-Jun-17 04:00N 53°24' E 004°48'0 0.0 1023.7
2017-Jun-17 03:00N 53°24' E 004°48'0 0.0 1023.4
2017-Jun-17 02:00N 53°24' E 004°48'6 6.0 1023.5
2017-Jun-17 01:00N 53°18' E 004°48'0 0.0 1023.7
2017-Jun-17 00:00N 53°18' E 004°48'6 6.0 1023.8
2017-Jun-16 23:00N 53°24' E 004°48'0 0.0 1023.9
2017-Jun-16 22:00N 53°24' E 004°48'0 0.0 1023.9
2017-Jun-16 21:00N 53°24' E 004°48'0 0.0 1023.8
2017-Jun-16 20:00N 53°24' E 004°48'0 0.0 1023.5
2017-Jun-16 19:00N 53°24' E 004°48'337.1 1023.5
2017-Jun-16 18:55N 53°21' E 004°49'1 0.9
2017-Jun-16 17:21N 53°20' E 004°50'3 7.2
2017-Jun-16 17:00N 53°18' E 004°48'333.3 1022.7
2017-Jun-16 16:55N 53°20' E 004°51'3 3.0
2017-Jun-16 16:00N 53°18' E 004°48'611.2 1022.3
2017-Jun-16 15:26N 53°12' E 004°44'4 8.3
2017-Jun-16 15:00N 53°09' E 004°41'3375.4
2017-Jun-16 15:00N 53°12' E 004°42'714.4 1022.4
2017-Jun-16 14:31N 53°05' E 004°38'610.9
2017-Jun-16 14:00N 53°00' E 004°36'3 5.7 1022.1
2017-Jun-16 13:30N 52°58' E 004°33'4 7.3
2017-Jun-16 13:01N 52°54' E 004°34'160.6
2017-Jun-16 13:00N 52°54' E 004°36'2 3.3 1021.8
2017-Jun-16 12:31N 52°54' E 004°39'510.4
2017-Jun-16 12:00N 52°58' E 004°44'2128.8
2017-Jun-16 12:00N 53°00' E 004°42'3 5.7 1021.0
2017-Jun-16 11:23N 53°00' E 004°48'0 1.1
2017-Jun-16 11:00N 53°00' E 004°48'038.8 1020.5
2017-Jun-16 10:59N 53°00' E 004°48'0 0.0
2017-Jun-16 10:26N 53°00' E 004°48'0 1.0
2017-Jun-16 10:00N 53°00' E 004°48'036.9 1020.0
2017-Jun-16 09:59N 53°00' E 004°48'0 0.0
2017-Jun-16 09:29N 53°00' E 004°48'0 0.9
2017-Jun-16 09:00N 53°00' E 004°48'0 7.0 1019.4
2017-Jun-16 08:56N 53°00' E 004°48'0 0.0
2017-Jun-16 08:23N 53°00' E 004°48'0 1.1
2017-Jun-16 08:00N 53°00' E 004°48'0 6.9 1018.6
2017-Jun-16 07:56N 53°00' E 004°48'0 0.0
2017-Jun-16 07:26N 53°00' E 004°48'0 1.0
2017-Jun-16 07:00N 53°00' E 004°48'0 6.9 1018.0
2017-Jun-16 06:56N 53°00' E 004°48'0 0.0
2017-Jun-16 06:29N 53°00' E 004°48'0 0.9
2017-Jun-16 06:00N 53°00' E 004°48'0 6.8 1017.7
2017-Jun-16 05:56N 53°00' E 004°48'0 0.0
2017-Jun-16 05:29N 53°00' E 004°48'0 0.9
2017-Jun-16 05:00N 53°00' E 004°48'031.7 1017.0
2017-Jun-16 04:59N 53°00' E 004°48'0 0.0
2017-Jun-16 04:29N 53°00' E 004°48'0 0.9
2017-Jun-16 04:00N 53°00' E 004°48'0 6.7 1016.6
2017-Jun-16 03:56N 53°00' E 004°48'0 0.0
2017-Jun-16 03:29N 53°00' E 004°48'0 0.9
2017-Jun-16 03:00N 53°00' E 004°48'029.3 1015.9
2017-Jun-16 02:59N 53°00' E 004°48'0 0.0
2017-Jun-16 02:29N 53°00' E 004°48'0 0.9
2017-Jun-16 02:00N 53°00' E 004°48'028.7 1015.4
2017-Jun-16 01:59N 53°00' E 004°48'0 0.0
2017-Jun-16 01:26N 53°00' E 004°48'0 1.0
2017-Jun-16 01:00N 53°00' E 004°48'027.7 1015.0
2017-Jun-16 00:59N 53°00' E 004°48'0 0.0
2017-Jun-16 00:29N 53°00' E 004°48'0 0.9
2017-Jun-16 00:00N 53°00' E 004°48'027.2 1014.2
2017-Jun-15 23:59N 53°00' E 004°48'0 0.0
2017-Jun-15 23:29N 53°00' E 004°48'0 0.9
2017-Jun-15 23:00N 53°00' E 004°48'025.8 1014.1
2017-Jun-15 22:59N 53°00' E 004°48'0 0.0
2017-Jun-15 22:29N 53°00' E 004°48'0 0.9
2017-Jun-15 22:00N 53°00' E 004°48'025.4 1013.7
2017-Jun-15 21:58N 53°00' E 004°48'0 0.0
2017-Jun-15 21:22N 53°00' E 004°48'0 1.1
2017-Jun-15 21:00N 53°00' E 004°48'024.6 1013.4
2017-Jun-15 20:58N 53°00' E 004°48'0 0.0
2017-Jun-15 20:28N 53°00' E 004°48'0 0.9
2017-Jun-15 20:00N 53°00' E 004°48'0 6.4 1012.9
2017-Jun-15 19:55N 53°00' E 004°48'0 0.0
2017-Jun-15 19:28N 53°00' E 004°48'0 0.9
2017-Jun-15 19:00N 53°00' E 004°48'023.5 1012.6
2017-Jun-15 18:58N 53°00' E 004°48'0 0.0
2017-Jun-15 18:25N 53°00' E 004°48'0 1.0
2017-Jun-15 18:00N 53°00' E 004°48'022.8 1012.6
2017-Jun-15 17:58N 53°00' E 004°48'0 0.0
2017-Jun-15 17:28N 53°00' E 004°48'0 0.9
2017-Jun-15 17:00N 53°00' E 004°48'022.5 1012.6
2017-Jun-15 16:58N 53°00' E 004°48'0 0.0
2017-Jun-15 16:28N 53°00' E 004°48'0 0.9
2017-Jun-15 16:00N 53°00' E 004°48'021.8 1012.5
2017-Jun-15 15:58N 53°00' E 004°48'0 0.0
2017-Jun-15 15:25N 53°00' E 004°48'0 1.0
2017-Jun-15 15:00N 53°00' E 004°48'021.5 1012.8
2017-Jun-15 14:58N 53°00' E 004°48'0 0.0
2017-Jun-15 14:25N 53°00' E 004°48'0 1.0
2017-Jun-15 14:00N 53°00' E 004°48'0 0.8 1012.6
2017-Jun-15 13:28N 53°00' E 004°48'0 0.9
2017-Jun-15 13:00N 53°00' E 004°48'020.7
2017-Jun-15 12:58N 53°00' E 004°48'0 0.0
2017-Jun-15 12:28N 53°00' E 004°48'0 0.9
2017-Jun-15 12:00N 53°00' E 004°48'0 3.5
2017-Jun-15 11:52N 53°00' E 004°48'0 0.0
2017-Jun-15 11:28N 53°00' E 004°48'0 0.9
2017-Jun-15 11:00N 53°00' E 004°48'0 3.5
2017-Jun-15 10:52N 53°00' E 004°48'0 0.0
2017-Jun-15 10:25N 53°00' E 004°48'0 1.0
2017-Jun-15 10:00N 53°00' E 004°48'019.1
2017-Jun-15 09:58N 53°00' E 004°48'0 0.0
2017-Jun-15 09:28N 53°00' E 004°48'0 0.9
2017-Jun-15 09:00N 53°00' E 004°48'018.9
2017-Jun-15 08:58N 53°00' E 004°48'0 0.0
2017-Jun-15 08:28N 53°00' E 004°48'0 0.0
2017-Jun-15 07:58N 53°00' E 004°48'0 0.0
2017-Jun-15 07:28N 53°00' E 004°48'0 0.0
2017-Jun-15 06:55N 53°00' E 004°48'0 0.0
2017-Jun-15 06:28N 53°00' E 004°48'0 0.9
2017-Jun-15 06:00N 53°00' E 004°48'0 3.5
2017-Jun-15 05:52N 53°00' E 004°48'0 0.0
2017-Jun-15 05:28N 53°00' E 004°48'0 0.9
2017-Jun-15 05:00N 53°00' E 004°48'017.6
2017-Jun-15 04:58N 53°00' E 004°48'0 0.0
2017-Jun-15 04:28N 53°00' E 004°48'0 0.3
2017-Jun-15 04:00N 53°00' E 004°48'023.5
2017-Jun-15 04:00N 53°00' E 004°48'1 1.2
2017-Jun-15 03:30N 53°00' E 004°49'0 0.7
2017-Jun-15 03:00N 53°00' E 004°48'019.0
2017-Jun-15 03:00N 53°00' E 004°48'0 0.8
2017-Jun-15 02:30N 52°60' E 004°48'2 3.4
2017-Jun-15 02:00N 52°59' E 004°45'2125.4
2017-Jun-15 02:00N 53°00' E 004°48'4 8.4
2017-Jun-15 01:30N 52°57' E 004°43'2 4.1
2017-Jun-15 01:00N 52°56' E 004°41'2132.2
2017-Jun-15 01:00N 52°54' E 004°42'2 3.7
2017-Jun-15 00:30N 52°54' E 004°39'2 4.1
2017-Jun-15 00:00N 52°53' E 004°37'188.1
2017-Jun-15 00:00N 52°54' E 004°36'  

Dump ship's entire track history